Kayes Dag Dag Airport


Codes: GAKY/KYS
Name: Kayes Dag Dag Airport
City:
Country: Mali
Elevation: 164 ft.
Wikipedia:

Photos at Kayes Dag Dag Airport


   Photos courtesy of SpottingLog. You can add your own sightings and photos by signing up for a free trial today.



No photos found.

Weather at Kayes Dag Dag Airport


Time (UTC)DescriptionTempratureWindCloud coverageVisibilityPressureHumidity
25-Jun-2024 15:00Overcast Clouds38°C11 mph, W99%10000m1009hPa28%
25-Jun-2024 18:00Overcast Clouds39°C9 mph, NW100%10000m1008hPa23%
25-Jun-2024 21:00Overcast Clouds37°C7 mph, SW88%10000m1008hPa23%
26-Jun-2024 00:00Broken Clouds35°C16 mph, SW83%10000m1008hPa44%
26-Jun-2024 03:00Scattered Clouds33°C16 mph, W42%10000m1007hPa51%
26-Jun-2024 06:00Scattered Clouds32°C16 mph, W34%10000m1009hPa47%
26-Jun-2024 09:00Broken Clouds33°C18 mph, W74%10000m1010hPa31%
26-Jun-2024 12:00Overcast Clouds37°C16 mph, W85%10000m1009hPa20%
26-Jun-2024 15:00Broken Clouds40°C13 mph, W62%10000m1007hPa15%
26-Jun-2024 18:00Scattered Clouds40°C11 mph, W35%10000m1005hPa15%
26-Jun-2024 21:00Clear Sky37°C7 mph, SW2%10000m1008hPa18%
27-Jun-2024 00:00Clear Sky35°C11 mph, SW1%10000m1008hPa24%
27-Jun-2024 03:00Clear Sky33°C16 mph, SW1%10000m1006hPa27%
27-Jun-2024 06:00Few Clouds30°C16 mph, W12%10000m1008hPa35%
27-Jun-2024 09:00Broken Clouds32°C13 mph, SW58%10000m1012hPa43%
27-Jun-2024 12:00Broken Clouds35°C18 mph, SW66%10000m1009hPa32%
27-Jun-2024 15:00Overcast Clouds39°C16 mph, W100%10000m1007hPa22%
27-Jun-2024 18:00Overcast Clouds40°C7 mph, W100%10000m1006hPa19%
27-Jun-2024 21:00Overcast Clouds37°C7 mph, SW100%10000m1008hPa24%
28-Jun-2024 00:00Broken Clouds35°C9 mph, SW83%10000m1009hPa30%
28-Jun-2024 03:00Clear Sky32°C16 mph, SW6%10000m1007hPa48%
28-Jun-2024 06:00Scattered Clouds31°C13 mph, SW28%10000m1010hPa49%
28-Jun-2024 09:00Broken Clouds33°C16 mph, SW66%10000m1012hPa44%
28-Jun-2024 12:00Broken Clouds37°C13 mph, SW73%10000m1011hPa31%
28-Jun-2024 15:00Broken Clouds39°C9 mph, W84%10000m1008hPa24%
28-Jun-2024 18:00Broken Clouds40°C7 mph, W59%10000m1007hPa22%
28-Jun-2024 21:00Broken Clouds38°C7 mph, W80%10000m1009hPa25%
29-Jun-2024 00:00Broken Clouds33°C16 mph, SW52%10000m1010hPa42%
29-Jun-2024 03:00Broken Clouds31°C13 mph, SW68%10000m1009hPa48%
29-Jun-2024 06:00Broken Clouds30°C18 mph, W71%10000m1010hPa50%
29-Jun-2024 09:00Overcast Clouds32°C16 mph, SW96%10000m1013hPa44%
29-Jun-2024 12:00Overcast Clouds36°C16 mph, SW100%10000m1012hPa34%
29-Jun-2024 15:00Overcast Clouds40°C13 mph, W95%10000m1008hPa26%
29-Jun-2024 18:00Overcast Clouds39°C9 mph, W98%10000m1007hPa25%
29-Jun-2024 21:00Broken Clouds37°C13 mph, W63%10000m1007hPa29%
30-Jun-2024 00:00Scattered Clouds35°C13 mph, SW48%10000m1008hPa33%
30-Jun-2024 03:00Broken Clouds32°C20 mph, W59%10000m1008hPa54%
30-Jun-2024 06:00Broken Clouds30°C16 mph, W51%10000m1010hPa49%
30-Jun-2024 09:00Broken Clouds32°C18 mph, W77%10000m1011hPa47%
30-Jun-2024 12:00Broken Clouds37°C16 mph, W76%10000m1010hPa35%